sensor_id;sensor_type;location;lat;lon;timestamp;temperature;humidity
14755;DHT22;7469;50.906;6.952;2023-02-01T00:00:52;7.30;99.90
14755;DHT22;7469;50.906;6.952;2023-02-01T00:03:22;7.30;99.90
14755;DHT22;7469;50.906;6.952;2023-02-01T00:05:56;7.30;99.90
14755;DHT22;7469;50.906;6.952;2023-02-01T00:08:25;7.20;99.90
14755;DHT22;7469;50.906;6.952;2023-02-01T00:10:58;7.20;99.90
14755;DHT22;7469;50.906;6.952;2023-02-01T00:13:28;7.10;99.90
14755;DHT22;7469;50.906;6.952;2023-02-01T00:16:03;7.00;99.90
14755;DHT22;7469;50.906;6.952;2023-02-01T00:18:32;7.00;99.90
14755;DHT22;7469;50.906;6.952;2023-02-01T00:21:00;6.90;99.90
14755;DHT22;7469;50.906;6.952;2023-02-01T00:23:31;6.90;99.90
14755;DHT22;7469;50.906;6.952;2023-02-01T00:26:00;6.80;99.90
14755;DHT22;7469;50.906;6.952;2023-02-01T00:28:28;6.80;99.90
14755;DHT22;7469;50.906;6.952;2023-02-01T00:30:56;6.70;99.90
14755;DHT22;7469;50.906;6.952;2023-02-01T00:33:25;6.70;99.90
14755;DHT22;7469;50.906;6.952;2023-02-01T00:35:57;6.60;99.90
14755;DHT22;7469;50.906;6.952;2023-02-01T00:38:26;6.60;99.90
14755;DHT22;7469;50.906;6.952;2023-02-01T00:40:54;6.60;99.90
14755;DHT22;7469;50.906;6.952;2023-02-01T00:43:22;6.60;99.90
14755;DHT22;7469;50.906;6.952;2023-02-01T00:45:50;6.50;99.90
14755;DHT22;7469;50.906;6.952;2023-02-01T00:48:18;6.50;99.90
14755;DHT22;7469;50.906;6.952;2023-02-01T00:50:46;6.50;99.90
14755;DHT22;7469;50.906;6.952;2023-02-01T00:53:15;6.50;99.90
14755;DHT22;7469;50.906;6.952;2023-02-01T00:55:45;6.50;99.90
14755;DHT22;7469;50.906;6.952;2023-02-01T00:58:13;6.60;99.90
14755;DHT22;7469;50.906;6.952;2023-02-01T01:00:41;6.60;99.90
14755;DHT22;7469;50.906;6.952;2023-02-01T01:03:09;6.60;99.90
14755;DHT22;7469;50.906;6.952;2023-02-01T01:05:45;6.60;99.90
14755;DHT22;7469;50.906;6.952;2023-02-01T01:08:15;6.60;99.90
14755;DHT22;7469;50.906;6.952;2023-02-01T01:10:43;6.60;99.90
14755;DHT22;7469;50.906;6.952;2023-02-01T01:13:12;6.70;99.90
14755;DHT22;7469;50.906;6.952;2023-02-01T01:15:40;6.70;99.90
14755;DHT22;7469;50.906;6.952;2023-02-01T01:18:09;6.70;99.90
14755;DHT22;7469;50.906;6.952;2023-02-01T01:20:39;6.70;99.90
14755;DHT22;7469;50.906;6.952;2023-02-01T01:23:08;6.70;99.90
14755;DHT22;7469;50.906;6.952;2023-02-01T01:25:39;6.70;99.90
14755;DHT22;7469;50.906;6.952;2023-02-01T01:28:07;6.70;99.90
14755;DHT22;7469;50.906;6.952;2023-02-01T01:30:35;6.70;99.90
14755;DHT22;7469;50.906;6.952;2023-02-01T01:33:03;6.70;99.90
14755;DHT22;7469;50.906;6.952;2023-02-01T01:35:31;6.70;99.90
14755;DHT22;7469;50.906;6.952;2023-02-01T01:38:00;6.70;99.90
14755;DHT22;7469;50.906;6.952;2023-02-01T01:40:29;6.70;99.90
14755;DHT22;7469;50.906;6.952;2023-02-01T01:42:59;6.70;99.90
14755;DHT22;7469;50.906;6.952;2023-02-01T01:45:29;6.70;99.90
14755;DHT22;7469;50.906;6.952;2023-02-01T01:47:59;6.70;99.90
14755;DHT22;7469;50.906;6.952;2023-02-01T01:50:32;6.70;99.90
14755;DHT22;7469;50.906;6.952;2023-02-01T01:53:03;6.70;99.90
14755;DHT22;7469;50.906;6.952;2023-02-01T01:55:35;6.70;99.90
14755;DHT22;7469;50.906;6.952;2023-02-01T01:58:09;6.70;99.90
14755;DHT22;7469;50.906;6.952;2023-02-01T02:00:38;6.70;99.90
14755;DHT22;7469;50.906;6.952;2023-02-01T02:03:11;6.60;99.90
14755;DHT22;7469;50.906;6.952;2023-02-01T02:05:41;6.60;99.90
14755;DHT22;7469;50.906;6.952;2023-02-01T02:08:09;6.60;99.90
14755;DHT22;7469;50.906;6.952;2023-02-01T02:10:38;6.60;99.90
14755;DHT22;7469;50.906;6.952;2023-02-01T02:13:25;6.60;99.90
14755;DHT22;7469;50.906;6.952;2023-02-01T02:16:10;6.60;99.90
14755;DHT22;7469;50.906;6.952;2023-02-01T02:18:46;6.60;99.90
14755;DHT22;7469;50.906;6.952;2023-02-01T02:21:27;6.60;99.90
14755;DHT22;7469;50.906;6.952;2023-02-01T02:24:29;6.60;99.90
14755;DHT22;7469;50.906;6.952;2023-02-01T02:27:10;6.60;99.90
14755;DHT22;7469;50.906;6.952;2023-02-01T02:30:12;6.60;99.90
14755;DHT22;7469;50.906;6.952;2023-02-01T02:35:43;6.60;99.90
14755;DHT22;7469;50.906;6.952;2023-02-01T02:38:20;6.60;99.90
14755;DHT22;7469;50.906;6.952;2023-02-01T02:40:57;6.60;99.90
14755;DHT22;7469;50.906;6.952;2023-02-01T02:43:34;6.60;99.90
14755;DHT22;7469;50.906;6.952;2023-02-01T02:46:25;6.60;99.90
14755;DHT22;7469;50.906;6.952;2023-02-01T02:49:17;6.60;99.90
14755;DHT22;7469;50.906;6.952;2023-02-01T02:51:50;6.60;99.90
14755;DHT22;7469;50.906;6.952;2023-02-01T02:54:39;6.60;99.90
14755;DHT22;7469;50.906;6.952;2023-02-01T02:57:19;6.60;99.90
14755;DHT22;7469;50.906;6.952;2023-02-01T03:00:08;6.60;99.90
14755;DHT22;7469;50.906;6.952;2023-02-01T03:02:54;6.60;99.90
14755;DHT22;7469;50.906;6.952;2023-02-01T03:05:42;6.60;99.90
14755;DHT22;7469;50.906;6.952;2023-02-01T03:08:14;6.60;99.90
14755;DHT22;7469;50.906;6.952;2023-02-01T03:10:52;6.60;99.90
14755;DHT22;7469;50.906;6.952;2023-02-01T03:13:27;6.60;99.90
14755;DHT22;7469;50.906;6.952;2023-02-01T03:16:00;6.60;99.90
14755;DHT22;7469;50.906;6.952;2023-02-01T03:18:40;6.70;99.90
14755;DHT22;7469;50.906;6.952;2023-02-01T03:21:13;6.60;99.90
14755;DHT22;7469;50.906;6.952;2023-02-01T03:23:46;6.70;99.90
14755;DHT22;7469;50.906;6.952;2023-02-01T03:26:17;6.70;99.90
14755;DHT22;7469;50.906;6.952;2023-02-01T03:28:49;6.70;99.90
14755;DHT22;7469;50.906;6.952;2023-02-01T03:31:20;6.70;99.90
14755;DHT22;7469;50.906;6.952;2023-02-01T03:33:48;6.70;99.90
14755;DHT22;7469;50.906;6.952;2023-02-01T03:36:23;6.70;99.90
14755;DHT22;7469;50.906;6.952;2023-02-01T03:39:00;6.70;99.90
14755;DHT22;7469;50.906;6.952;2023-02-01T03:41:35;6.70;99.90
14755;DHT22;7469;50.906;6.952;2023-02-01T03:44:12;6.70;99.90
14755;DHT22;7469;50.906;6.952;2023-02-01T03:46:45;6.70;99.90
14755;DHT22;7469;50.906;6.952;2023-02-01T03:49:18;6.70;99.90
14755;DHT22;7469;50.906;6.952;2023-02-01T03:51:48;6.70;99.90
14755;DHT22;7469;50.906;6.952;2023-02-01T03:54:20;6.60;99.90
14755;DHT22;7469;50.906;6.952;2023-02-01T03:56:48;6.60;99.90
14755;DHT22;7469;50.906;6.952;2023-02-01T03:59:18;6.60;99.90
14755;DHT22;7469;50.906;6.952;2023-02-01T04:01:46;6.50;99.90
14755;DHT22;7469;50.906;6.952;2023-02-01T04:04:14;6.50;99.90
14755;DHT22;7469;50.906;6.952;2023-02-01T04:06:46;6.40;99.90
14755;DHT22;7469;50.906;6.952;2023-02-01T04:09:15;6.40;99.90
14755;DHT22;7469;50.906;6.952;2023-02-01T04:11:44;6.40;99.90
14755;DHT22;7469;50.906;6.952;2023-02-01T04:14:12;6.40;99.90
14755;DHT22;7469;50.906;6.952;2023-02-01T04:16:40;6.40;99.90
14755;DHT22;7469;50.906;6.952;2023-02-01T04:19:08;6.40;99.90
14755;DHT22;7469;50.906;6.952;2023-02-01T04:21:36;6.40;99.90
14755;DHT22;7469;50.906;6.952;2023-02-01T04:24:05;6.40;99.90
14755;DHT22;7469;50.906;6.952;2023-02-01T04:26:33;6.40;99.90
14755;DHT22;7469;50.906;6.952;2023-02-01T04:29:03;6.40;99.90
14755;DHT22;7469;50.906;6.952;2023-02-01T04:31:31;6.40;99.90
14755;DHT22;7469;50.906;6.952;2023-02-01T04:33:59;6.50;99.90
14755;DHT22;7469;50.906;6.952;2023-02-01T04:36:27;6.50;99.90
14755;DHT22;7469;50.906;6.952;2023-02-01T04:38:55;6.50;99.90
14755;DHT22;7469;50.906;6.952;2023-02-01T04:41:23;6.50;99.90
14755;DHT22;7469;50.906;6.952;2023-02-01T04:43:51;6.50;99.90
14755;DHT22;7469;50.906;6.952;2023-02-01T04:46:21;6.50;99.90
14755;DHT22;7469;50.906;6.952;2023-02-01T04:48:49;6.50;99.90
14755;DHT22;7469;50.906;6.952;2023-02-01T04:51:17;6.50;99.90
14755;DHT22;7469;50.906;6.952;2023-02-01T04:53:45;6.40;99.90
14755;DHT22;7469;50.906;6.952;2023-02-01T04:56:13;6.40;99.90
14755;DHT22;7469;50.906;6.952;2023-02-01T04:58:41;6.30;99.90
14755;DHT22;7469;50.906;6.952;2023-02-01T05:01:09;6.30;99.90
14755;DHT22;7469;50.906;6.952;2023-02-01T05:03:38;6.30;99.90
14755;DHT22;7469;50.906;6.952;2023-02-01T05:06:06;6.20;99.90
14755;DHT22;7469;50.906;6.952;2023-02-01T05:08:34;6.10;99.90
14755;DHT22;7469;50.906;6.952;2023-02-01T05:11:04;6.10;99.90
14755;DHT22;7469;50.906;6.952;2023-02-01T05:13:32;6.10;99.90
14755;DHT22;7469;50.906;6.952;2023-02-01T05:16:14;6.00;99.90
14755;DHT22;7469;50.906;6.952;2023-02-01T05:18:44;6.00;99.90
14755;DHT22;7469;50.906;6.952;2023-02-01T05:21:12;6.00;99.90
14755;DHT22;7469;50.906;6.952;2023-02-01T05:23:40;6.00;99.90
14755;DHT22;7469;50.906;6.952;2023-02-01T05:26:22;5.90;99.90
14755;DHT22;7469;50.906;6.952;2023-02-01T05:28:51;5.90;99.90
14755;DHT22;7469;50.906;6.952;2023-02-01T05:31:19;5.90;99.90
14755;DHT22;7469;50.906;6.952;2023-02-01T05:33:48;5.90;99.90
14755;DHT22;7469;50.906;6.952;2023-02-01T05:36:16;5.90;99.90
14755;DHT22;7469;50.906;6.952;2023-02-01T05:38:44;5.90;99.90
14755;DHT22;7469;50.906;6.952;2023-02-01T05:41:12;5.80;99.90
14755;DHT22;7469;50.906;6.952;2023-02-01T05:43:40;5.80;99.90
14755;DHT22;7469;50.906;6.952;2023-02-01T05:46:08;5.80;99.90
14755;DHT22;7469;50.906;6.952;2023-02-01T05:48:37;5.80;99.90
14755;DHT22;7469;50.906;6.952;2023-02-01T05:51:06;5.80;99.90
14755;DHT22;7469;50.906;6.952;2023-02-01T05:53:34;5.80;99.90
14755;DHT22;7469;50.906;6.952;2023-02-01T05:56:03;5.70;99.90
14755;DHT22;7469;50.906;6.952;2023-02-01T05:58:31;5.70;99.90
14755;DHT22;7469;50.906;6.952;2023-02-01T06:00:59;5.70;99.90
14755;DHT22;7469;50.906;6.952;2023-02-01T06:03:28;5.70;99.90
14755;DHT22;7469;50.906;6.952;2023-02-01T06:05:56;5.70;99.90
14755;DHT22;7469;50.906;6.952;2023-02-01T06:08:25;5.70;99.90
14755;DHT22;7469;50.906;6.952;2023-02-01T06:10:57;5.60;99.90
14755;DHT22;7469;50.906;6.952;2023-02-01T06:13:25;5.60;99.90
14755;DHT22;7469;50.906;6.952;2023-02-01T06:15:54;5.60;99.90
14755;DHT22;7469;50.906;6.952;2023-02-01T06:18:22;5.60;99.90
14755;DHT22;7469;50.906;6.952;2023-02-01T06:20:54;5.60;99.90
14755;DHT22;7469;50.906;6.952;2023-02-01T06:23:22;5.50;99.90
14755;DHT22;7469;50.906;6.952;2023-02-01T06:25:52;5.50;99.90
14755;DHT22;7469;50.906;6.952;2023-02-01T06:28:20;5.50;99.90
14755;DHT22;7469;50.906;6.952;2023-02-01T06:30:49;5.50;99.90
14755;DHT22;7469;50.906;6.952;2023-02-01T06:33:18;5.50;99.90
14755;DHT22;7469;50.906;6.952;2023-02-01T06:35:46;5.50;99.90
14755;DHT22;7469;50.906;6.952;2023-02-01T06:38:14;5.50;99.90
14755;DHT22;7469;50.906;6.952;2023-02-01T06:40:42;5.40;99.90
14755;DHT22;7469;50.906;6.952;2023-02-01T06:43:11;5.50;99.90
14755;DHT22;7469;50.906;6.952;2023-02-01T06:45:39;5.40;99.90
14755;DHT22;7469;50.906;6.952;2023-02-01T06:48:08;5.40;99.90
14755;DHT22;7469;50.906;6.952;2023-02-01T06:50:36;5.50;99.90
14755;DHT22;7469;50.906;6.952;2023-02-01T06:53:04;5.40;99.90
14755;DHT22;7469;50.906;6.952;2023-02-01T06:55:32;5.50;99.90
14755;DHT22;7469;50.906;6.952;2023-02-01T06:58:00;5.50;99.90
14755;DHT22;7469;50.906;6.952;2023-02-01T07:00:30;5.50;99.90
14755;DHT22;7469;50.906;6.952;2023-02-01T07:02:58;5.60;99.90
14755;DHT22;7469;50.906;6.952;2023-02-01T07:05:26;5.60;99.90
14755;DHT22;7469;50.906;6.952;2023-02-01T07:07:54;5.70;99.90
14755;DHT22;7469;50.906;6.952;2023-02-01T07:10:22;5.80;99.90
14755;DHT22;7469;50.906;6.952;2023-02-01T07:12:50;5.80;99.90
14755;DHT22;7469;50.906;6.952;2023-02-01T07:15:18;5.80;99.90
14755;DHT22;7469;50.906;6.952;2023-02-01T07:17:49;5.90;99.90
14755;DHT22;7469;50.906;6.952;2023-02-01T07:20:17;5.90;99.90
14755;DHT22;7469;50.906;6.952;2023-02-01T07:22:45;5.90;99.90
14755;DHT22;7469;50.906;6.952;2023-02-01T07:25:13;6.00;99.90
14755;DHT22;7469;50.906;6.952;2023-02-01T07:27:41;6.00;99.90
14755;DHT22;7469;50.906;6.952;2023-02-01T07:30:11;6.00;99.90
14755;DHT22;7469;50.906;6.952;2023-02-01T07:32:39;6.10;99.90
14755;DHT22;7469;50.906;6.952;2023-02-01T07:35:09;6.10;99.90
14755;DHT22;7469;50.906;6.952;2023-02-01T07:37:37;6.20;99.90
14755;DHT22;7469;50.906;6.952;2023-02-01T07:40:06;6.20;99.90
14755;DHT22;7469;50.906;6.952;2023-02-01T07:42:34;6.20;99.90
14755;DHT22;7469;50.906;6.952;2023-02-01T07:45:02;6.30;99.90
14755;DHT22;7469;50.906;6.952;2023-02-01T07:47:46;6.30;99.90
14755;DHT22;7469;50.906;6.952;2023-02-01T07:50:16;6.30;99.90
14755;DHT22;7469;50.906;6.952;2023-02-01T07:52:44;6.30;99.90
14755;DHT22;7469;50.906;6.952;2023-02-01T07:55:12;6.30;99.90
14755;DHT22;7469;50.906;6.952;2023-02-01T07:57:39;6.30;99.90
14755;DHT22;7469;50.906;6.952;2023-02-01T08:00:09;6.30;99.90
14755;DHT22;7469;50.906;6.952;2023-02-01T08:02:54;6.30;99.90
14755;DHT22;7469;50.906;6.952;2023-02-01T08:05:27;6.40;99.90
14755;DHT22;7469;50.906;6.952;2023-02-01T08:07:55;6.40;99.90
14755;DHT22;7469;50.906;6.952;2023-02-01T08:10:22;6.40;99.90
14755;DHT22;7469;50.906;6.952;2023-02-01T08:12:51;6.40;99.90
14755;DHT22;7469;50.906;6.952;2023-02-01T08:15:19;6.40;99.90
14755;DHT22;7469;50.906;6.952;2023-02-01T08:17:48;6.50;99.90
14755;DHT22;7469;50.906;6.952;2023-02-01T08:20:17;6.50;99.90
14755;DHT22;7469;50.906;6.952;2023-02-01T08:22:47;6.60;99.90
14755;DHT22;7469;50.906;6.952;2023-02-01T08:25:15;6.60;99.90
14755;DHT22;7469;50.906;6.952;2023-02-01T08:27:43;6.60;99.90
14755;DHT22;7469;50.906;6.952;2023-02-01T08:30:12;6.60;99.90
14755;DHT22;7469;50.906;6.952;2023-02-01T08:32:40;6.60;99.90
14755;DHT22;7469;50.906;6.952;2023-02-01T08:35:08;6.60;99.90
14755;DHT22;7469;50.906;6.952;2023-02-01T08:37:36;6.60;99.90
14755;DHT22;7469;50.906;6.952;2023-02-01T08:40:08;6.60;99.90
14755;DHT22;7469;50.906;6.952;2023-02-01T08:42:36;6.70;99.90
14755;DHT22;7469;50.906;6.952;2023-02-01T08:45:21;6.70;99.90
14755;DHT22;7469;50.906;6.952;2023-02-01T08:47:50;6.70;99.90
14755;DHT22;7469;50.906;6.952;2023-02-01T08:50:19;6.70;99.90
14755;DHT22;7469;50.906;6.952;2023-02-01T08:52:48;6.80;99.90
14755;DHT22;7469;50.906;6.952;2023-02-01T08:55:18;6.90;99.90
14755;DHT22;7469;50.906;6.952;2023-02-01T08:57:46;7.00;99.90
14755;DHT22;7469;50.906;6.952;2023-02-01T09:00:16;7.10;99.90
14755;DHT22;7469;50.906;6.952;2023-02-01T09:02:45;7.10;99.90
14755;DHT22;7469;50.906;6.952;2023-02-01T09:05:13;7.30;99.90
14755;DHT22;7469;50.906;6.952;2023-02-01T09:07:43;7.30;99.90
14755;DHT22;7469;50.906;6.952;2023-02-01T09:10:11;7.50;99.90
14755;DHT22;7469;50.906;6.952;2023-02-01T09:12:41;7.70;99.90
14755;DHT22;7469;50.906;6.952;2023-02-01T09:15:10;7.90;99.90
14755;DHT22;7469;50.906;6.952;2023-02-01T09:17:38;8.10;99.90
14755;DHT22;7469;50.906;6.952;2023-02-01T09:20:10;8.30;99.90
14755;DHT22;7469;50.906;6.952;2023-02-01T09:22:39;8.80;99.90
14755;DHT22;7469;50.906;6.952;2023-02-01T09:25:08;9.50;99.90
14755;DHT22;7469;50.906;6.952;2023-02-01T09:27:36;9.90;99.90
14755;DHT22;7469;50.906;6.952;2023-02-01T09:30:06;10.20;99.90
14755;DHT22;7469;50.906;6.952;2023-02-01T09:32:35;10.30;99.90
14755;DHT22;7469;50.906;6.952;2023-02-01T09:35:04;10.30;99.90
14755;DHT22;7469;50.906;6.952;2023-02-01T09:37:32;10.20;99.90
14755;DHT22;7469;50.906;6.952;2023-02-01T09:40:00;10.00;99.90
14755;DHT22;7469;50.906;6.952;2023-02-01T09:42:46;10.00;99.90
14755;DHT22;7469;50.906;6.952;2023-02-01T09:45:24;10.00;99.90
14755;DHT22;7469;50.906;6.952;2023-02-01T09:47:59;10.20;99.90
14755;DHT22;7469;50.906;6.952;2023-02-01T09:50:35;10.60;99.90
14755;DHT22;7469;50.906;6.952;2023-02-01T09:53:09;10.90;99.90
14755;DHT22;7469;50.906;6.952;2023-02-01T09:55:41;11.20;99.90
14755;DHT22;7469;50.906;6.952;2023-02-01T09:58:16;11.50;99.90
14755;DHT22;7469;50.906;6.952;2023-02-01T10:00:51;11.60;99.90
14755;DHT22;7469;50.906;6.952;2023-02-01T10:03:20;11.70;99.90
14755;DHT22;7469;50.906;6.952;2023-02-01T10:06:12;11.50;99.90
14755;DHT22;7469;50.906;6.952;2023-02-01T10:11:51;11.10;99.90
14755;DHT22;7469;50.906;6.952;2023-02-01T10:14:45;10.90;99.90
14755;DHT22;7469;50.906;6.952;2023-02-01T10:17:25;10.80;99.90
14755;DHT22;7469;50.906;6.952;2023-02-01T10:20:02;10.80;99.90
14755;DHT22;7469;50.906;6.952;2023-02-01T10:22:39;11.00;99.90
14755;DHT22;7469;50.906;6.952;2023-02-01T10:25:32;11.10;99.90
14755;DHT22;7469;50.906;6.952;2023-02-01T10:28:03;11.70;99.90
14755;DHT22;7469;50.906;6.952;2023-02-01T10:30:38;12.60;99.90
14755;DHT22;7469;50.906;6.952;2023-02-01T10:33:16;13.60;99.90
14755;DHT22;7469;50.906;6.952;2023-02-01T10:35:46;14.20;99.90
14755;DHT22;7469;50.906;6.952;2023-02-01T10:38:21;14.20;99.90
14755;DHT22;7469;50.906;6.952;2023-02-01T10:40:56;14.30;99.90
14755;DHT22;7469;50.906;6.952;2023-02-01T10:43:26;14.70;99.90
14755;DHT22;7469;50.906;6.952;2023-02-01T10:45:56;15.10;99.90
14755;DHT22;7469;50.906;6.952;2023-02-01T10:48:26;15.40;99.90
14755;DHT22;7469;50.906;6.952;2023-02-01T10:51:00;15.80;99.90
14755;DHT22;7469;50.906;6.952;2023-02-01T10:53:31;16.30;99.90
14755;DHT22;7469;50.906;6.952;2023-02-01T10:56:06;16.60;99.90
14755;DHT22;7469;50.906;6.952;2023-02-01T10:58:36;16.70;99.90
14755;DHT22;7469;50.906;6.952;2023-02-01T11:01:15;16.40;99.90
14755;DHT22;7469;50.906;6.952;2023-02-01T11:03:52;15.80;99.90
14755;DHT22;7469;50.906;6.952;2023-02-01T11:06:29;15.10;99.90
14755;DHT22;7469;50.906;6.952;2023-02-01T11:08:59;14.50;99.90
14755;DHT22;7469;50.906;6.952;2023-02-01T11:11:28;14.10;99.90
14755;DHT22;7469;50.906;6.952;2023-02-01T11:13:57;13.90;99.90
14755;DHT22;7469;50.906;6.952;2023-02-01T11:16:32;13.70;99.90
14755;DHT22;7469;50.906;6.952;2023-02-01T11:19:03;13.30;99.90
14755;DHT22;7469;50.906;6.952;2023-02-01T11:21:31;13.10;99.90
14755;DHT22;7469;50.906;6.952;2023-02-01T11:24:02;13.00;99.90
14755;DHT22;7469;50.906;6.952;2023-02-01T11:26:30;12.70;99.90
14755;DHT22;7469;50.906;6.952;2023-02-01T11:29:01;12.40;99.90
14755;DHT22;7469;50.906;6.952;2023-02-01T11:31:32;12.10;99.90
14755;DHT22;7469;50.906;6.952;2023-02-01T11:34:08;12.10;99.90
14755;DHT22;7469;50.906;6.952;2023-02-01T11:36:39;12.10;99.90
14755;DHT22;7469;50.906;6.952;2023-02-01T11:39:17;12.00;99.90
14755;DHT22;7469;50.906;6.952;2023-02-01T11:41:57;11.90;99.90
14755;DHT22;7469;50.906;6.952;2023-02-01T11:44:31;12.10;99.90
14755;DHT22;7469;50.906;6.952;2023-02-01T11:47:21;12.10;99.90
14755;DHT22;7469;50.906;6.952;2023-02-01T11:49:52;12.00;99.90
14755;DHT22;7469;50.906;6.952;2023-02-01T11:52:33;12.00;99.90
14755;DHT22;7469;50.906;6.952;2023-02-01T11:55:23;11.90;99.90
14755;DHT22;7469;50.906;6.952;2023-02-01T11:58:05;11.60;99.90
14755;DHT22;7469;50.906;6.952;2023-02-01T12:00:48;11.30;99.90
14755;DHT22;7469;50.906;6.952;2023-02-01T12:03:50;11.00;99.90
14755;DHT22;7469;50.906;6.952;2023-02-01T12:06:28;10.80;99.90
14755;DHT22;7469;50.906;6.952;2023-02-01T12:09:14;10.60;99.90
14755;DHT22;7469;50.906;6.952;2023-02-01T12:11:57;10.40;99.90
14755;DHT22;7469;50.906;6.952;2023-02-01T12:14:42;10.20;99.90
14755;DHT22;7469;50.906;6.952;2023-02-01T12:23:37;9.90;99.90
14755;DHT22;7469;50.906;6.952;2023-02-01T12:26:33;9.90;99.90
14755;DHT22;7469;50.906;6.952;2023-02-01T12:29:18;9.80;99.90
14755;DHT22;7469;50.906;6.952;2023-02-01T12:32:10;9.70;99.90
14755;DHT22;7469;50.906;6.952;2023-02-01T12:35:09;9.70;99.90
14755;DHT22;7469;50.906;6.952;2023-02-01T12:37:56;9.70;99.90
14755;DHT22;7469;50.906;6.952;2023-02-01T12:40:39;9.60;99.90
14755;DHT22;7469;50.906;6.952;2023-02-01T12:43:14;9.50;99.90
14755;DHT22;7469;50.906;6.952;2023-02-01T12:45:53;9.60;99.90
14755;DHT22;7469;50.906;6.952;2023-02-01T12:48:28;9.60;99.90
14755;DHT22;7469;50.906;6.952;2023-02-01T12:51:01;9.60;99.90
14755;DHT22;7469;50.906;6.952;2023-02-01T12:53:40;9.70;99.90
14755;DHT22;7469;50.906;6.952;2023-02-01T12:56:31;9.70;99.90
14755;DHT22;7469;50.906;6.952;2023-02-01T12:59:03;9.70;99.90
14755;DHT22;7469;50.906;6.952;2023-02-01T13:01:35;9.60;99.90
14755;DHT22;7469;50.906;6.952;2023-02-01T13:04:10;9.60;99.90
14755;DHT22;7469;50.906;6.952;2023-02-01T13:06:43;9.50;99.90
14755;DHT22;7469;50.906;6.952;2023-02-01T13:09:20;9.30;99.90
14755;DHT22;7469;50.906;6.952;2023-02-01T13:11:54;9.30;99.90
14755;DHT22;7469;50.906;6.952;2023-02-01T13:14:28;9.20;99.90
14755;DHT22;7469;50.906;6.952;2023-02-01T13:17:00;9.10;99.90
14755;DHT22;7469;50.906;6.952;2023-02-01T13:19:39;9.00;99.90
14755;DHT22;7469;50.906;6.952;2023-02-01T13:22:12;8.90;99.90
14755;DHT22;7469;50.906;6.952;2023-02-01T13:24:46;8.90;99.90
14755;DHT22;7469;50.906;6.952;2023-02-01T13:27:17;8.80;99.90
14755;DHT22;7469;50.906;6.952;2023-02-01T13:29:51;8.80;99.90
14755;DHT22;7469;50.906;6.952;2023-02-01T13:35:57;8.70;99.90
14755;DHT22;7469;50.906;6.952;2023-02-01T13:41:42;8.70;99.90
14755;DHT22;7469;50.906;6.952;2023-02-01T13:44:24;8.70;99.90
14755;DHT22;7469;50.906;6.952;2023-02-01T13:46:57;8.60;99.90
14755;DHT22;7469;50.906;6.952;2023-02-01T13:49:28;8.60;99.90
14755;DHT22;7469;50.906;6.952;2023-02-01T13:51:57;8.60;99.90
14755;DHT22;7469;50.906;6.952;2023-02-01T13:54:28;8.60;99.90
14755;DHT22;7469;50.906;6.952;2023-02-01T13:56:58;8.60;99.90
14755;DHT22;7469;50.906;6.952;2023-02-01T13:59:49;8.60;99.90
14755;DHT22;7469;50.906;6.952;2023-02-01T14:02:49;8.60;99.90
14755;DHT22;7469;50.906;6.952;2023-02-01T14:06:02;8.60;99.90
14755;DHT22;7469;50.906;6.952;2023-02-01T14:11:42;8.60;99.90
14755;DHT22;7469;50.906;6.952;2023-02-01T14:14:49;8.60;99.90
14755;DHT22;7469;50.906;6.952;2023-02-01T14:17:35;8.60;99.90
14755;DHT22;7469;50.906;6.952;2023-02-01T14:23:21;8.60;99.90
14755;DHT22;7469;50.906;6.952;2023-02-01T14:26:06;8.70;99.90
14755;DHT22;7469;50.906;6.952;2023-02-01T14:28:38;8.60;99.90
14755;DHT22;7469;50.906;6.952;2023-02-01T14:31:30;8.70;99.90
14755;DHT22;7469;50.906;6.952;2023-02-01T14:34:02;8.70;99.90
14755;DHT22;7469;50.906;6.952;2023-02-01T14:36:41;8.70;99.90
14755;DHT22;7469;50.906;6.952;2023-02-01T14:39:26;8.70;99.90
14755;DHT22;7469;50.906;6.952;2023-02-01T14:41:58;8.70;99.90
14755;DHT22;7469;50.906;6.952;2023-02-01T14:44:31;8.70;99.90
14755;DHT22;7469;50.906;6.952;2023-02-01T14:49:52;8.70;99.90
14755;DHT22;7469;50.906;6.952;2023-02-01T14:52:29;8.70;99.90
14755;DHT22;7469;50.906;6.952;2023-02-01T14:55:03;8.70;99.90
14755;DHT22;7469;50.906;6.952;2023-02-01T14:57:34;8.70;99.90
14755;DHT22;7469;50.906;6.952;2023-02-01T15:00:10;8.70;99.90
14755;DHT22;7469;50.906;6.952;2023-02-01T15:02:43;8.70;99.90
14755;DHT22;7469;50.906;6.952;2023-02-01T15:05:24;8.70;99.90
14755;DHT22;7469;50.906;6.952;2023-02-01T15:07:53;8.70;99.90
14755;DHT22;7469;50.906;6.952;2023-02-01T15:10:22;8.70;99.90
14755;DHT22;7469;50.906;6.952;2023-02-01T15:12:50;8.70;99.90
14755;DHT22;7469;50.906;6.952;2023-02-01T15:15:21;8.70;99.90
14755;DHT22;7469;50.906;6.952;2023-02-01T15:17:53;8.70;99.90
14755;DHT22;7469;50.906;6.952;2023-02-01T15:20:23;8.80;99.90
14755;DHT22;7469;50.906;6.952;2023-02-01T15:22:54;8.80;99.90
14755;DHT22;7469;50.906;6.952;2023-02-01T15:25:24;8.80;99.90
14755;DHT22;7469;50.906;6.952;2023-02-01T15:27:53;8.70;99.90
14755;DHT22;7469;50.906;6.952;2023-02-01T15:30:23;8.70;99.90
14755;DHT22;7469;50.906;6.952;2023-02-01T15:33:05;8.70;99.90
14755;DHT22;7469;50.906;6.952;2023-02-01T15:35:39;8.70;99.90
14755;DHT22;7469;50.906;6.952;2023-02-01T15:38:35;8.70;99.90
14755;DHT22;7469;50.906;6.952;2023-02-01T15:41:10;8.70;99.90
14755;DHT22;7469;50.906;6.952;2023-02-01T15:43:42;8.70;99.90
14755;DHT22;7469;50.906;6.952;2023-02-01T15:46:13;8.70;99.90
14755;DHT22;7469;50.906;6.952;2023-02-01T15:48:46;8.60;99.90
14755;DHT22;7469;50.906;6.952;2023-02-01T15:51:19;8.70;99.90
14755;DHT22;7469;50.906;6.952;2023-02-01T15:53:51;8.70;99.90
14755;DHT22;7469;50.906;6.952;2023-02-01T15:56:25;8.60;99.90
14755;DHT22;7469;50.906;6.952;2023-02-01T15:58:57;8.70;99.90
14755;DHT22;7469;50.906;6.952;2023-02-01T16:01:25;8.70;99.90
14755;DHT22;7469;50.906;6.952;2023-02-01T16:04:14;8.60;99.90
14755;DHT22;7469;50.906;6.952;2023-02-01T16:06:48;8.60;99.90
14755;DHT22;7469;50.906;6.952;2023-02-01T16:09:18;8.70;99.90
14755;DHT22;7469;50.906;6.952;2023-02-01T16:11:52;8.60;99.90
14755;DHT22;7469;50.906;6.952;2023-02-01T16:14:21;8.60;99.90
14755;DHT22;7469;50.906;6.952;2023-02-01T16:16:50;8.60;99.90
14755;DHT22;7469;50.906;6.952;2023-02-01T16:19:19;8.60;99.90
14755;DHT22;7469;50.906;6.952;2023-02-01T16:21:49;8.60;99.90
14755;DHT22;7469;50.906;6.952;2023-02-01T16:24:17;8.60;99.90
14755;DHT22;7469;50.906;6.952;2023-02-01T16:26:45;8.50;99.90
14755;DHT22;7469;50.906;6.952;2023-02-01T16:29:13;8.50;99.90
14755;DHT22;7469;50.906;6.952;2023-02-01T16:31:42;8.40;99.90
14755;DHT22;7469;50.906;6.952;2023-02-01T16:34:14;8.40;99.90
14755;DHT22;7469;50.906;6.952;2023-02-01T16:36:47;8.30;99.90
14755;DHT22;7469;50.906;6.952;2023-02-01T16:39:18;8.30;99.90
14755;DHT22;7469;50.906;6.952;2023-02-01T16:41:47;8.20;99.90
14755;DHT22;7469;50.906;6.952;2023-02-01T16:44:15;8.10;99.90
14755;DHT22;7469;50.906;6.952;2023-02-01T16:46:44;8.10;99.90
14755;DHT22;7469;50.906;6.952;2023-02-01T16:49:17;8.00;99.90
14755;DHT22;7469;50.906;6.952;2023-02-01T16:51:48;8.00;99.90
14755;DHT22;7469;50.906;6.952;2023-02-01T16:54:20;8.00;99.90
14755;DHT22;7469;50.906;6.952;2023-02-01T16:56:47;7.90;99.90
14755;DHT22;7469;50.906;6.952;2023-02-01T16:59:16;7.90;99.90
14755;DHT22;7469;50.906;6.952;2023-02-01T17:01:44;7.80;99.90
14755;DHT22;7469;50.906;6.952;2023-02-01T17:04:12;7.80;99.90